Time;durP1;ratioP1;P1;durP2;ratioP2;P2;SDS_P1;SDS_P2;PMS_P1;PMS_P2;Temp;Humidity;BMP_temperature;BMP_pressure;BME280_temperature;BME280_humidity;BME280_pressure;Samples;Min_cycle;Max_cycle;Signal;HPM_P1;HPM_P2
2023/04/20 00:01:41;;;;;;;7.30;4.35;;;;;;;;;;4986703;28;20033;-80
2023/04/20 00:04:08;;;;;;;5.53;4.40;;;;;;;;;;4981724;28;20030;-79
2023/04/20 00:06:34;;;;;;;6.45;3.90;;;;;;;;;;4985797;28;20134;-79
2023/04/20 00:09:00;;;;;;;6.57;3.70;;;;;;;;;;4977729;28;20031;-78
2023/04/20 00:11:27;;;;;;;5.60;4.07;;;;;;;;;;4966093;28;20456;-79
2023/04/20 00:13:53;;;;;;;4.93;3.47;;;;;;;;;;4961186;28;20054;-78
2023/04/20 00:16:19;;;;;;;6.38;3.83;;;;;;;;;;4982486;28;20030;-79
2023/04/20 00:18:46;;;;;;;8.45;4.05;;;;;;;;;;4982001;28;20116;-80
2023/04/20 00:21:12;;;;;;;9.23;4.90;;;;;;;;;;4985532;28;20077;-79
2023/04/20 00:23:39;;;;;;;9.77;3.88;;;;;;;;;;4979841;28;20027;-78
2023/04/20 00:26:05;;;;;;;5.60;4.00;;;;;;;;;;4978186;28;20030;-80
2023/04/20 00:28:31;;;;;;;6.55;4.15;;;;;;;;;;4978851;28;20034;-79
2023/04/20 00:30:58;;;;;;;5.30;3.65;;;;;;;;;;4980262;28;20034;-80
2023/04/20 00:33:24;;;;;;;7.07;4.47;;;;;;;;;;4984610;28;20032;-80
2023/04/20 00:35:50;;;;;;;5.60;4.47;;;;;;;;;;4959823;28;20057;-78
2023/04/20 00:38:16;;;;;;;6.78;4.65;;;;;;;;;;4973150;28;20653;-78
2023/04/20 00:40:43;;;;;;;8.35;5.03;;;;;;;;;;4976673;28;20593;-79
2023/04/20 00:43:13;;;;;;;11.30;5.65;;;;;;;;;;4979234;28;20022;-79
2023/04/20 00:45:40;;;;;;;7.07;5.30;;;;;;;;;;4962739;28;20034;-79
2023/04/20 00:48:06;;;;;;;10.68;5.95;;;;;;;;;;4977144;28;20034;-80
2023/04/20 00:50:37;;;;;;;9.50;5.45;;;;;;;;;;4978041;28;20034;-80
2023/04/20 00:53:03;;;;;;;6.45;5.18;;;;;;;;;;4978326;28;20626;-80
2023/04/20 00:55:30;;;;;;;9.30;5.72;;;;;;;;;;4980099;28;20625;-79
2023/04/20 00:57:57;;;;;;;6.60;5.25;;;;;;;;;;4977995;28;20101;-79
2023/04/20 01:00:23;;;;;;;9.55;4.95;;;;;;;;;;4980303;28;20019;-79
2023/04/20 01:02:49;;;;;;;8.50;5.25;;;;;;;;;;4979733;28;20046;-79
2023/04/20 01:05:15;;;;;;;11.32;5.55;;;;;;;;;;4977755;28;20031;-78
2023/04/20 01:07:42;;;;;;;8.45;5.20;;;;;;;;;;4978410;28;20042;-80
2023/04/20 01:10:08;;;;;;;9.65;5.88;;;;;;;;;;4982308;28;20136;-80
2023/04/20 01:12:35;;;;;;;8.85;5.80;;;;;;;;;;4981874;28;20035;-79
2023/04/20 01:15:04;;;;;;;9.40;5.60;;;;;;;;;;4983207;28;20514;-78
2023/04/20 01:17:32;;;;;;;8.73;5.78;;;;;;;;;;4982393;28;20026;-79
2023/04/20 01:19:59;;;;;;;8.05;4.72;;;;;;;;;;4958024;28;20053;-81
2023/04/20 01:22:25;;;;;;;7.35;4.50;;;;;;;;;;4961381;28;20027;-79
2023/04/20 01:24:51;;;;;;;6.88;4.57;;;;;;;;;;4969763;28;20029;-78
2023/04/20 01:27:18;;;;;;;5.38;3.90;;;;;;;;;;4966366;28;20178;-78
2023/04/20 01:29:44;;;;;;;5.40;3.70;;;;;;;;;;4967356;28;20105;-79
2023/04/20 01:32:10;;;;;;;6.35;4.05;;;;;;;;;;4966392;28;20027;-78
2023/04/20 01:34:37;;;;;;;7.25;4.55;;;;;;;;;;4967553;28;20538;-79
2023/04/20 01:37:07;;;;;;;10.90;4.43;;;;;;;;;;4965307;28;20035;-80
2023/04/20 01:39:42;;;;;;;6.72;4.43;;;;;;;;;;4963762;28;20653;-78
2023/04/20 01:42:09;;;;;;;7.45;5.07;;;;;;;;;;4951315;28;20554;-79
2023/04/20 01:44:35;;;;;;;9.50;5.32;;;;;;;;;;4947843;28;20062;-80
2023/04/20 01:47:01;;;;;;;10.27;4.80;;;;;;;;;;4964058;28;20171;-80
2023/04/20 01:49:27;;;;;;;9.80;5.57;;;;;;;;;;4964775;28;20387;-80
2023/04/20 01:51:54;;;;;;;12.25;6.90;;;;;;;;;;4968333;28;20486;-78
2023/04/20 01:54:21;;;;;;;8.65;4.55;;;;;;;;;;4962267;28;20042;-79
2023/04/20 01:56:47;;;;;;;8.25;5.97;;;;;;;;;;4961175;28;20027;-80
2023/04/20 01:59:13;;;;;;;7.43;4.50;;;;;;;;;;4968053;28;20109;-79
2023/04/20 02:01:39;;;;;;;5.85;4.90;;;;;;;;;;4964113;28;20026;-79
2023/04/20 02:04:05;;;;;;;8.40;5.25;;;;;;;;;;4961903;28;20448;-79
2023/04/20 02:06:32;;;;;;;7.70;5.40;;;;;;;;;;4964615;28;20082;-80
2023/04/20 02:08:58;;;;;;;7.25;5.20;;;;;;;;;;4959455;28;20041;-79
2023/04/20 02:11:25;;;;;;;7.78;4.00;;;;;;;;;;4964797;28;20030;-80
2023/04/20 02:13:51;;;;;;;6.13;3.95;;;;;;;;;;4963797;28;20034;-80
2023/04/20 02:16:21;;;;;;;7.03;3.75;;;;;;;;;;4972455;28;20109;-79
2023/04/20 02:18:47;;;;;;;8.30;4.13;;;;;;;;;;4963085;28;20034;-78
2023/04/20 02:21:13;;;;;;;7.57;4.53;;;;;;;;;;4976251;28;20061;-78
2023/04/20 02:23:39;;;;;;;9.23;4.60;;;;;;;;;;4977204;28;20483;-78
2023/04/20 02:26:07;;;;;;;6.25;4.20;;;;;;;;;;4983398;28;20054;-80
2023/04/20 02:28:33;;;;;;;10.77;6.70;;;;;;;;;;4981742;28;20511;-79
2023/04/20 02:30:59;;;;;;;6.22;4.55;;;;;;;;;;4976833;28;20027;-78
2023/04/20 02:33:26;;;;;;;6.40;4.50;;;;;;;;;;4976914;28;20045;-78
2023/04/20 02:35:52;;;;;;;7.43;4.53;;;;;;;;;;4979168;28;20108;-78
2023/04/20 02:38:18;;;;;;;8.95;5.38;;;;;;;;;;4979405;28;20069;-79
2023/04/20 02:40:44;;;;;;;9.18;4.95;;;;;;;;;;4981902;28;20625;-79
2023/04/20 02:43:10;;;;;;;7.05;4.82;;;;;;;;;;4975779;28;20027;-79
2023/04/20 02:45:37;;;;;;;8.93;4.70;;;;;;;;;;4980490;28;20026;-79
2023/04/20 02:48:03;;;;;;;9.00;6.03;;;;;;;;;;4967251;28;20110;-79
2023/04/20 02:50:30;;;;;;;12.50;6.85;;;;;;;;;;4982223;28;20112;-79
2023/04/20 02:52:56;;;;;;;10.05;6.95;;;;;;;;;;4982383;28;20690;-78
2023/04/20 02:55:22;;;;;;;12.82;7.65;;;;;;;;;;4984285;28;20034;-78
2023/04/20 02:57:48;;;;;;;10.88;7.35;;;;;;;;;;4979957;28;20023;-80
2023/04/20 03:00:14;;;;;;;9.45;7.15;;;;;;;;;;4982509;28;20066;-78
2023/04/20 03:02:41;;;;;;;9.85;7.05;;;;;;;;;;4976936;28;20090;-78
2023/04/20 03:05:07;;;;;;;12.70;7.30;;;;;;;;;;4982641;28;20041;-79
2023/04/20 03:07:33;;;;;;;13.15;7.60;;;;;;;;;;4979659;28;20061;-78
2023/04/20 03:10:00;;;;;;;14.32;7.55;;;;;;;;;;4982327;28;20084;-79
2023/04/20 03:12:26;;;;;;;13.82;7.43;;;;;;;;;;4978735;28;20137;-80
2023/04/20 03:14:52;;;;;;;9.18;6.38;;;;;;;;;;4979049;28;20030;-78
2023/04/20 03:17:18;;;;;;;9.52;6.85;;;;;;;;;;4980903;28;20481;-79
2023/04/20 03:19:45;;;;;;;8.45;4.85;;;;;;;;;;4954288;28;20169;-80
2023/04/20 03:22:11;;;;;;;8.68;5.40;;;;;;;;;;4960297;28;20109;-79
2023/04/20 03:24:37;;;;;;;9.75;5.63;;;;;;;;;;4956214;28;20023;-78
2023/04/20 03:27:03;;;;;;;10.93;5.72;;;;;;;;;;4963471;28;20065;-79
2023/04/20 03:29:30;;;;;;;7.93;5.20;;;;;;;;;;4966733;28;20038;-80
2023/04/20 03:31:56;;;;;;;9.63;5.75;;;;;;;;;;4961325;28;20106;-79
2023/04/20 03:34:22;;;;;;;7.78;4.93;;;;;;;;;;4962207;28;20105;-78
2023/04/20 03:36:48;;;;;;;7.70;4.30;;;;;;;;;;4962104;28;20052;-80
2023/04/20 03:39:15;;;;;;;5.88;4.25;;;;;;;;;;4959945;28;20066;-78
2023/04/20 03:41:41;;;;;;;7.47;4.40;;;;;;;;;;4944517;28;20023;-78
2023/04/20 03:44:07;;;;;;;8.00;5.28;;;;;;;;;;4944342;28;20113;-80
2023/04/20 03:46:33;;;;;;;8.13;4.55;;;;;;;;;;4975825;28;20533;-79
2023/04/20 03:49:00;;;;;;;5.15;4.07;;;;;;;;;;4963523;28;20053;-79
2023/04/20 03:51:26;;;;;;;6.20;4.43;;;;;;;;;;4962416;28;20065;-78
2023/04/20 03:53:52;;;;;;;7.78;4.55;;;;;;;;;;4959954;28;20031;-78
2023/04/20 03:56:18;;;;;;;7.18;4.32;;;;;;;;;;4966403;28;20061;-78
2023/04/20 03:58:44;;;;;;;8.20;5.47;;;;;;;;;;4966651;28;20480;-78
2023/04/20 04:01:12;;;;;;;7.75;4.60;;;;;;;;;;4961285;28;20110;-79
2023/04/20 04:03:38;;;;;;;5.55;3.80;;;;;;;;;;4957195;28;20585;-80
2023/04/20 04:06:04;;;;;;;6.00;4.18;;;;;;;;;;4969902;28;20114;-80
2023/04/20 04:08:31;;;;;;;6.53;3.60;;;;;;;;;;4967739;28;20042;-78
2023/04/20 04:10:57;;;;;;;5.72;3.50;;;;;;;;;;4963919;28;20026;-78
2023/04/20 04:13:23;;;;;;;6.03;3.40;;;;;;;;;;4969306;28;20054;-79
2023/04/20 04:15:49;;;;;;;3.92;2.85;;;;;;;;;;4966171;28;20105;-78
2023/04/20 04:18:16;;;;;;;5.45;3.00;;;;;;;;;;4960125;28;20038;-74
2023/04/20 04:20:42;;;;;;;7.13;3.40;;;;;;;;;;4979060;28;20522;-74
2023/04/20 04:23:08;;;;;;;4.50;3.00;;;;;;;;;;4980562;28;20494;-74
2023/04/20 04:25:37;;;;;;;4.80;3.25;;;;;;;;;;4981461;28;20028;-73
2023/04/20 04:28:04;;;;;;;6.15;4.25;;;;;;;;;;4976967;28;20089;-74
2023/04/20 04:30:30;;;;;;;5.15;3.80;;;;;;;;;;4981889;28;20034;-74
2023/04/20 04:32:56;;;;;;;6.90;3.38;;;;;;;;;;4977901;28;20031;-74
2023/04/20 04:35:22;;;;;;;6.45;3.90;;;;;;;;;;4983790;28;20030;-73
2023/04/20 04:37:48;;;;;;;7.10;4.50;;;;;;;;;;4985400;28;20027;-73
2023/04/20 04:40:17;;;;;;;5.25;4.40;;;;;;;;;;4983790;28;20522;-74
2023/04/20 04:42:44;;;;;;;9.38;3.88;;;;;;;;;;4981672;28;20107;-73
2023/04/20 04:45:12;;;;;;;7.75;4.15;;;;;;;;;;4986567;28;20026;-74
2023/04/20 04:47:40;;;;;;;7.35;4.18;;;;;;;;;;4984430;28;20034;-73
2023/04/20 04:50:08;;;;;;;5.38;4.45;;;;;;;;;;4990125;28;20022;-74
2023/04/20 04:52:34;;;;;;;6.25;4.22;;;;;;;;;;4976735;28;20031;-74
2023/04/20 04:55:01;;;;;;;9.13;4.72;;;;;;;;;;4985940;28;20105;-74
2023/04/20 04:57:27;;;;;;;7.65;4.68;;;;;;;;;;4982738;28;20113;-73
2023/04/20 04:59:54;;;;;;;6.65;4.43;;;;;;;;;;4984214;28;20018;-74
2023/04/20 05:02:20;;;;;;;7.53;5.22;;;;;;;;;;4984700;28;20032;-74
2023/04/20 05:04:46;;;;;;;11.93;5.47;;;;;;;;;;4980667;28;20034;-76
2023/04/20 05:07:14;;;;;;;9.48;4.50;;;;;;;;;;4982754;28;20026;-76
2023/04/20 05:09:40;;;;;;;7.80;4.60;;;;;;;;;;4985567;28;20042;-76
2023/04/20 05:12:06;;;;;;;14.40;7.97;;;;;;;;;;4982660;28;20290;-80
2023/04/20 05:14:34;;;;;;;10.18;6.60;;;;;;;;;;4985351;28;20034;-79
2023/04/20 05:17:00;;;;;;;8.50;6.22;;;;;;;;;;4984842;28;20062;-78
2023/04/20 05:19:27;;;;;;;7.85;5.43;;;;;;;;;;4982938;28;20250;-80
2023/04/20 05:21:53;;;;;;;7.15;5.13;;;;;;;;;;4980965;28;20042;-80
2023/04/20 05:24:19;;;;;;;6.18;4.60;;;;;;;;;;4981836;28;20070;-78
2023/04/20 05:26:45;;;;;;;8.77;4.47;;;;;;;;;;4982773;28;20128;-79
2023/04/20 05:29:12;;;;;;;7.43;4.88;;;;;;;;;;4983635;28;20045;-78
2023/04/20 05:31:38;;;;;;;10.15;5.28;;;;;;;;;;4985126;28;20030;-78
2023/04/20 05:34:04;;;;;;;11.68;6.40;;;;;;;;;;4965093;28;20029;-80
2023/04/20 05:36:32;;;;;;;8.27;5.53;;;;;;;;;;4984098;28;20030;-78
2023/04/20 05:38:58;;;;;;;7.40;5.88;;;;;;;;;;4982947;28;20018;-77
2023/04/20 05:41:28;;;;;;;9.63;6.75;;;;;;;;;;4979433;28;20053;-81
2023/04/20 05:43:56;;;;;;;10.88;6.07;;;;;;;;;;4980838;28;20041;-81
2023/04/20 05:46:23;;;;;;;13.13;7.05;;;;;;;;;;4973372;28;20022;-81
2023/04/20 05:48:49;;;;;;;12.60;6.68;;;;;;;;;;4962383;28;20411;-80
2023/04/20 05:51:15;;;;;;;6.82;6.03;;;;;;;;;;4984960;28;20026;-82
2023/04/20 05:53:42;;;;;;;9.38;6.03;;;;;;;;;;4983955;28;20034;-81
2023/04/20 05:56:08;;;;;;;9.82;6.18;;;;;;;;;;4983860;28;20022;-81
2023/04/20 05:58:36;;;;;;;15.40;8.32;;;;;;;;;;4980939;28;20038;-79
2023/04/20 06:01:03;;;;;;;8.88;6.90;;;;;;;;;;4980100;28;20122;-79
2023/04/20 06:03:29;;;;;;;11.95;7.20;;;;;;;;;;4983091;28;20033;-78
2023/04/20 06:05:55;;;;;;;16.73;8.55;;;;;;;;;;4984388;28;20461;-78
2023/04/20 06:08:22;;;;;;;9.57;8.35;;;;;;;;;;4979171;28;20515;-81
2023/04/20 06:10:48;;;;;;;16.80;10.73;;;;;;;;;;4984100;28;20025;-79
2023/04/20 06:13:14;;;;;;;17.17;8.82;;;;;;;;;;4965365;28;20106;-79
2023/04/20 06:15:40;;;;;;;10.18;7.05;;;;;;;;;;4983596;28;20033;-79
2023/04/20 06:18:07;;;;;;;8.77;5.78;;;;;;;;;;4978802;28;20019;-79
2023/04/20 06:20:33;;;;;;;8.15;5.45;;;;;;;;;;4983743;28;20034;-80
2023/04/20 06:22:59;;;;;;;8.30;5.43;;;;;;;;;;4978638;28;20054;-80
2023/04/20 06:25:25;;;;;;;20.27;9.20;;;;;;;;;;4982079;28;20534;-80
2023/04/20 06:27:51;;;;;;;17.58;8.45;;;;;;;;;;4978845;28;20080;-78
2023/04/20 06:30:18;;;;;;;11.15;7.63;;;;;;;;;;4968685;28;20025;-79
2023/04/20 06:32:44;;;;;;;14.20;7.43;;;;;;;;;;4983134;28;20061;-79
2023/04/20 06:35:10;;;;;;;15.13;9.50;;;;;;;;;;4981525;28;20648;-78
2023/04/20 06:37:36;;;;;;;18.73;11.35;;;;;;;;;;4980947;28;20034;-79
2023/04/20 06:40:09;;;;;;;17.27;12.00;;;;;;;;;;4984763;28;20023;-78
2023/04/20 06:42:36;;;;;;;16.85;11.05;;;;;;;;;;4978489;28;20242;-79
2023/04/20 06:45:02;;;;;;;15.00;10.98;;;;;;;;;;4985067;28;20014;-79
2023/04/20 06:47:32;;;;;;;18.83;10.70;;;;;;;;;;4980535;28;20053;-78
2023/04/20 06:49:58;;;;;;;15.93;11.80;;;;;;;;;;4965767;28;20503;-80
2023/04/20 06:52:25;;;;;;;15.52;12.25;;;;;;;;;;4983399;28;20376;-80
2023/04/20 06:54:51;;;;;;;13.82;10.95;;;;;;;;;;4983111;28;20030;-78
2023/04/20 06:57:17;;;;;;;13.95;10.50;;;;;;;;;;4984523;28;20066;-80
2023/04/20 06:59:43;;;;;;;14.05;9.68;;;;;;;;;;4983055;28;20115;-79
2023/04/20 07:02:09;;;;;;;14.13;9.00;;;;;;;;;;4984542;28;20073;-80
2023/04/20 07:04:36;;;;;;;11.93;9.55;;;;;;;;;;4985808;28;20186;-80
2023/04/20 07:07:02;;;;;;;10.57;8.93;;;;;;;;;;4982995;28;20507;-79
2023/04/20 07:09:28;;;;;;;10.70;9.30;;;;;;;;;;4979209;28;20112;-80
2023/04/20 07:11:55;;;;;;;11.50;8.82;;;;;;;;;;4982298;28;20179;-80
2023/04/20 07:14:21;;;;;;;14.55;9.10;;;;;;;;;;4986270;28;20034;-79
2023/04/20 07:16:47;;;;;;;9.90;7.45;;;;;;;;;;4983991;28;20022;-80
2023/04/20 07:19:13;;;;;;;13.15;6.82;;;;;;;;;;4978631;28;20117;-78
2023/04/20 07:21:40;;;;;;;9.48;6.63;;;;;;;;;;4985211;28;20109;-81
2023/04/20 07:24:06;;;;;;;9.65;5.97;;;;;;;;;;4982129;28;20097;-79
2023/04/20 07:26:32;;;;;;;7.60;5.38;;;;;;;;;;4981474;28;20073;-79
2023/04/20 07:28:58;;;;;;;7.05;5.20;;;;;;;;;;4982948;28;20104;-80
2023/04/20 07:31:25;;;;;;;9.48;5.93;;;;;;;;;;4986218;28;20187;-78
2023/04/20 07:33:51;;;;;;;13.48;6.68;;;;;;;;;;4984516;28;20122;-80
2023/04/20 07:36:18;;;;;;;10.30;7.35;;;;;;;;;;4983916;28;20752;-80
2023/04/20 07:38:44;;;;;;;7.57;6.78;;;;;;;;;;4981433;28;20037;-78
2023/04/20 07:41:11;;;;;;;9.27;6.53;;;;;;;;;;4984021;28;20015;-79
2023/04/20 07:43:40;;;;;;;7.72;5.80;;;;;;;;;;4984273;28;20482;-79
2023/04/20 07:46:07;;;;;;;6.65;5.10;;;;;;;;;;4984053;28;20033;-79
2023/04/20 07:48:34;;;;;;;7.35;5.03;;;;;;;;;;4960430;28;20132;-80
2023/04/20 07:51:00;;;;;;;10.32;4.50;;;;;;;;;;4983024;28;20014;-80
2023/04/20 07:53:27;;;;;;;11.32;4.88;;;;;;;;;;4977523;28;20033;-79
2023/04/20 07:55:53;;;;;;;8.73;4.97;;;;;;;;;;4981968;28;20022;-80
2023/04/20 07:58:20;;;;;;;8.45;6.45;;;;;;;;;;4978491;28;20101;-79
2023/04/20 08:00:46;;;;;;;7.68;6.03;;;;;;;;;;4982415;28;20033;-79
2023/04/20 08:03:13;;;;;;;7.75;5.28;;;;;;;;;;4969218;28;20859;-79
2023/04/20 08:05:39;;;;;;;6.53;3.53;;;;;;;;;;4983531;28;20018;-79
2023/04/20 08:08:06;;;;;;;10.80;5.25;;;;;;;;;;4983196;28;20022;-79
2023/04/20 08:10:32;;;;;;;11.32;4.70;;;;;;;;;;4976548;28;20017;-78
2023/04/20 08:12:58;;;;;;;7.03;4.18;;;;;;;;;;4983888;28;20031;-79
2023/04/20 08:15:25;;;;;;;7.82;5.30;;;;;;;;;;4983873;28;20018;-79
2023/04/20 08:17:51;;;;;;;5.78;5.03;;;;;;;;;;4979970;28;20538;-79
2023/04/20 08:20:18;;;;;;;7.15;5.80;;;;;;;;;;4979216;28;20562;-78
2023/04/20 08:22:44;;;;;;;9.48;5.03;;;;;;;;;;4979047;28;20031;-79
2023/04/20 08:25:10;;;;;;;10.93;7.35;;;;;;;;;;4985363;28;20022;-79
2023/04/20 08:27:37;;;;;;;10.82;6.50;;;;;;;;;;4980630;28;20528;-79
2023/04/20 08:30:03;;;;;;;13.75;7.25;;;;;;;;;;4981166;28;20026;-78
2023/04/20 08:32:30;;;;;;;9.63;7.43;;;;;;;;;;4978009;28;20554;-80
2023/04/20 08:34:56;;;;;;;6.55;5.68;;;;;;;;;;4982281;28;20089;-78
2023/04/20 08:37:22;;;;;;;8.88;5.30;;;;;;;;;;4980075;28;20050;-80
2023/04/20 08:39:48;;;;;;;8.00;4.93;;;;;;;;;;4981888;28;20034;-79
2023/04/20 08:42:15;;;;;;;7.50;4.65;;;;;;;;;;4984690;28;20683;-79
2023/04/20 08:44:42;;;;;;;6.60;4.65;;;;;;;;;;4982595;28;20042;-79
2023/04/20 08:47:12;;;;;;;11.40;6.47;;;;;;;;;;4982415;28;20415;-79
2023/04/20 08:49:39;;;;;;;14.93;10.35;;;;;;;;;;4981823;28;20030;-78
2023/04/20 08:52:09;;;;;;;35.85;23.80;;;;;;;;;;4982222;28;20543;-79
2023/04/20 08:54:37;;;;;;;47.50;24.90;;;;;;;;;;4975570;28;20026;-78
2023/04/20 08:57:03;;;;;;;14.70;8.35;;;;;;;;;;4981577;28;20033;-79
2023/04/20 08:59:30;;;;;;;10.88;7.57;;;;;;;;;;4965408;28;20109;-80
2023/04/20 09:01:56;;;;;;;8.35;5.25;;;;;;;;;;4981738;28;21876;-80
2023/04/20 09:04:28;;;;;;;10.52;7.72;;;;;;;;;;4982854;28;20949;-80
2023/04/20 09:06:55;;;;;;;14.40;8.32;;;;;;;;;;4975229;28;20045;-78
2023/04/20 09:09:22;;;;;;;10.10;6.07;;;;;;;;;;4976106;28;20034;-79
2023/04/20 09:12:01;;;;;;;13.40;6.63;;;;;;;;;;4963908;28;20030;-79
2023/04/20 09:14:27;;;;;;;9.32;6.75;;;;;;;;;;4982128;28;20030;-79
2023/04/20 09:16:59;;;;;;;10.77;6.15;;;;;;;;;;4982554;28;20019;-79
2023/04/20 09:19:26;;;;;;;9.32;6.40;;;;;;;;;;4979911;28;20073;-78
2023/04/20 09:21:56;;;;;;;13.75;6.30;;;;;;;;;;4981713;28;20019;-80
2023/04/20 09:24:23;;;;;;;10.35;6.88;;;;;;;;;;4985446;28;20453;-81
2023/04/20 09:26:49;;;;;;;11.07;5.57;;;;;;;;;;4981398;28;20027;-79
2023/04/20 09:29:16;;;;;;;14.02;5.97;;;;;;;;;;4984624;28;20091;-80
2023/04/20 09:31:42;;;;;;;22.77;13.60;;;;;;;;;;4983940;28;20157;-78
2023/04/20 09:34:09;;;;;;;13.00;6.50;;;;;;;;;;4989391;28;20081;-78
2023/04/20 09:36:39;;;;;;;10.38;4.72;;;;;;;;;;4969067;28;20025;-78
2023/04/20 09:39:16;;;;;;;7.22;4.50;;;;;;;;;;4983821;28;20026;-78
2023/04/20 09:41:43;;;;;;;13.80;7.15;;;;;;;;;;4985296;28;20128;-78
2023/04/20 09:44:10;;;;;;;11.07;6.25;;;;;;;;;;4981575;28;20022;-78
2023/04/20 09:46:38;;;;;;;11.93;6.15;;;;;;;;;;4987999;28;20025;-78
2023/04/20 09:49:05;;;;;;;9.27;5.65;;;;;;;;;;4967064;28;20026;-78
2023/04/20 09:51:34;;;;;;;12.05;7.35;;;;;;;;;;4989912;28;20068;-80
2023/04/20 09:54:01;;;;;;;9.90;5.32;;;;;;;;;;4982085;28;20018;-80
2023/04/20 09:56:28;;;;;;;5.32;4.07;;;;;;;;;;4986295;28;20030;-80
2023/04/20 09:58:54;;;;;;;7.03;3.70;;;;;;;;;;4965522;28;20026;-80
2023/04/20 10:01:21;;;;;;;7.75;4.10;;;;;;;;;;4968906;28;20089;-79
2023/04/20 10:03:48;;;;;;;9.25;6.07;;;;;;;;;;4979614;28;20045;-79
2023/04/20 10:06:23;;;;;;;6.88;3.25;;;;;;;;;;4985932;28;20065;-80
2023/04/20 10:08:50;;;;;;;5.13;3.08;;;;;;;;;;4981803;28;20035;-80
2023/04/20 10:11:25;;;;;;;4.82;3.05;;;;;;;;;;4984806;28;20030;-79
2023/04/20 10:13:52;;;;;;;4.38;2.67;;;;;;;;;;4978797;28;20067;-79
2023/04/20 10:16:19;;;;;;;4.78;2.45;;;;;;;;;;4991030;28;20026;-78
2023/04/20 10:19:05;;;;;;;5.70;3.00;;;;;;;;;;4979123;28;20034;-78
2023/04/20 10:21:32;;;;;;;6.45;2.92;;;;;;;;;;4983889;28;20105;-78
2023/04/20 10:24:02;;;;;;;4.03;2.28;;;;;;;;;;4982433;28;20597;-80
2023/04/20 10:26:37;;;;;;;4.18;2.50;;;;;;;;;;4990719;28;20185;-78
2023/04/20 10:29:05;;;;;;;5.32;2.67;;;;;;;;;;4981069;28;20088;-78
2023/04/20 10:31:41;;;;;;;6.65;3.63;;;;;;;;;;4983343;28;20018;-79
2023/04/20 10:34:08;;;;;;;4.07;2.60;;;;;;;;;;4979549;28;20537;-79
2023/04/20 10:36:36;;;;;;;4.15;2.38;;;;;;;;;;4985442;28;20379;-78
2023/04/20 10:39:18;;;;;;;5.18;3.08;;;;;;;;;;4982925;28;20034;-78
2023/04/20 10:41:44;;;;;;;;;;;;;;;;;;4982663;28;20030;-79
2023/04/20 10:44:10;;;;;;;6.22;3.60;;;;;;;;;;4985549;28;19906;-78
2023/04/20 10:46:36;;;;;;;5.32;3.40;;;;;;;;;;4984758;28;20300;-79
2023/04/20 10:49:02;;;;;;;4.95;3.13;;;;;;;;;;4982514;28;20069;-78
2023/04/20 10:51:29;;;;;;;4.00;2.92;;;;;;;;;;4983746;28;20019;-78
2023/04/20 10:53:58;;;;;;;4.22;2.35;;;;;;;;;;4980913;28;20023;-80
2023/04/20 10:56:25;;;;;;;7.03;3.25;;;;;;;;;;4985716;28;20109;-78
2023/04/20 10:58:52;;;;;;;7.03;5.43;;;;;;;;;;4979620;28;20022;-79
2023/04/20 11:01:19;;;;;;;8.38;4.50;;;;;;;;;;4983354;28;20826;-79
2023/04/20 11:03:50;;;;;;;6.75;4.97;;;;;;;;;;4983097;28;20030;-79
2023/04/20 11:06:16;;;;;;;6.20;4.85;;;;;;;;;;4979141;28;20034;-79
2023/04/20 11:08:42;;;;;;;5.13;3.83;;;;;;;;;;4982698;28;20034;-78
2023/04/20 11:11:28;;;;;;;3.47;2.85;;;;;;;;;;4984768;28;20025;-79
2023/04/20 11:14:11;;;;;;;7.13;4.55;;;;;;;;;;4960162;28;20033;-79
2023/04/20 11:16:37;;;;;;;8.80;4.45;;;;;;;;;;4984809;28;20057;-80
2023/04/20 11:19:04;;;;;;;6.05;4.32;;;;;;;;;;4981863;28;20046;-79
2023/04/20 11:21:41;;;;;;;6.45;4.22;;;;;;;;;;4984606;28;20028;-80
2023/04/20 11:24:18;;;;;;;7.82;6.00;;;;;;;;;;4980379;28;20022;-79
2023/04/20 11:26:48;;;;;;;7.40;4.85;;;;;;;;;;4983752;28;20030;-79
2023/04/20 11:29:14;;;;;;;4.20;3.08;;;;;;;;;;4979007;28;20026;-78
2023/04/20 11:31:40;;;;;;;4.00;3.10;;;;;;;;;;4983384;28;20140;-78
2023/04/20 11:34:16;;;;;;;3.38;2.85;;;;;;;;;;4980147;28;20102;-78
2023/04/20 11:36:43;;;;;;;5.18;2.80;;;;;;;;;;4982427;28;20027;-79
2023/04/20 11:39:11;;;;;;;4.68;3.33;;;;;;;;;;4981592;28;20641;-79
2023/04/20 11:41:38;;;;;;;4.13;2.40;;;;;;;;;;4983323;28;20030;-79
2023/04/20 11:44:06;;;;;;;6.72;3.58;;;;;;;;;;4979324;28;20113;-78
2023/04/20 11:46:36;;;;;;;4.55;3.30;;;;;;;;;;4987528;28;20108;-79
2023/04/20 11:49:03;;;;;;;4.07;3.13;;;;;;;;;;4979529;28;20029;-77
2023/04/20 11:51:30;;;;;;;5.68;3.20;;;;;;;;;;4983337;28;20022;-79
2023/04/20 11:53:57;;;;;;;4.88;3.15;;;;;;;;;;4980188;28;20653;-80
2023/04/20 11:56:23;;;;;;;5.78;3.28;;;;;;;;;;4982706;28;20049;-79
2023/04/20 11:58:49;;;;;;;4.75;3.53;;;;;;;;;;4963384;28;20496;-79
2023/04/20 12:01:15;;;;;;;5.78;2.95;;;;;;;;;;4981509;28;20022;-78
2023/04/20 12:03:42;;;;;;;5.00;3.35;;;;;;;;;;4987431;28;20084;-79
2023/04/20 12:06:08;;;;;;;3.63;3.00;;;;;;;;;;4983081;28;20105;-80
2023/04/20 12:08:35;;;;;;;5.43;2.97;;;;;;;;;;4978932;28;20045;-79
2023/04/20 12:11:02;;;;;;;3.90;2.90;;;;;;;;;;4982297;28;20030;-79
2023/04/20 12:13:28;;;;;;;4.80;2.72;;;;;;;;;;4977074;28;20030;-80
2023/04/20 12:15:54;;;;;;;4.35;2.60;;;;;;;;;;4966116;28;20495;-80
2023/04/20 12:18:20;;;;;;;4.60;2.78;;;;;;;;;;4974620;28;20114;-79
2023/04/20 12:20:48;;;;;;;6.18;3.03;;;;;;;;;;4982140;28;20041;-79
2023/04/20 12:23:15;;;;;;;4.70;2.70;;;;;;;;;;4977632;28;20030;-79
2023/04/20 12:25:41;;;;;;;2.53;2.30;;;;;;;;;;4982673;28;20026;-79
2023/04/20 12:28:08;;;;;;;4.78;2.60;;;;;;;;;;4979132;28;20037;-79
2023/04/20 12:30:34;;;;;;;3.08;2.17;;;;;;;;;;4986954;28;20025;-80
2023/04/20 12:33:01;;;;;;;4.60;3.03;;;;;;;;;;4980917;28;20033;-77
2023/04/20 12:35:27;;;;;;;4.78;3.72;;;;;;;;;;4980601;28;20031;-78
2023/04/20 12:37:53;;;;;;;6.90;4.60;;;;;;;;;;4969091;28;20037;-77
2023/04/20 12:40:20;;;;;;;4.35;3.30;;;;;;;;;;4981864;28;20034;-78
2023/04/20 12:42:46;;;;;;;4.47;3.22;;;;;;;;;;4978110;28;20030;-79
2023/04/20 12:45:12;;;;;;;3.50;3.20;;;;;;;;;;4968141;28;20503;-78
2023/04/20 12:47:38;;;;;;;5.05;2.63;;;;;;;;;;4982622;28;20053;-81
2023/04/20 12:50:06;;;;;;;3.58;2.70;;;;;;;;;;4982588;28;20037;-84
2023/04/20 12:52:32;;;;;;;3.22;2.50;;;;;;;;;;4977912;28;20026;-78
2023/04/20 12:54:59;;;;;;;6.85;2.53;;;;;;;;;;4978983;28;20093;-82
2023/04/20 12:57:25;;;;;;;3.35;2.22;;;;;;;;;;4985159;28;20077;-78
2023/04/20 12:59:51;;;;;;;3.17;2.30;;;;;;;;;;4986764;28;20483;-78
2023/04/20 13:02:18;;;;;;;3.78;2.53;;;;;;;;;;4982362;28;20041;-79
2023/04/20 13:04:45;;;;;;;3.30;2.40;;;;;;;;;;4986142;28;20057;-78
2023/04/20 13:07:11;;;;;;;5.95;2.72;;;;;;;;;;4984067;28;20054;-81
2023/04/20 13:09:38;;;;;;;4.90;2.65;;;;;;;;;;4984253;28;20029;-80
2023/04/20 13:12:04;;;;;;;3.97;2.85;;;;;;;;;;4983444;28;20019;-78
2023/04/20 13:14:31;;;;;;;2.80;2.22;;;;;;;;;;4981416;28;20427;-79
2023/04/20 13:17:00;;;;;;;4.13;2.08;;;;;;;;;;4990113;28;20117;-80
2023/04/20 13:19:27;;;;;;;3.65;2.10;;;;;;;;;;4978804;28;20069;-77
2023/04/20 13:21:53;;;;;;;5.88;3.08;;;;;;;;;;4984796;28;20066;-81
2023/04/20 13:24:20;;;;;;;2.95;2.17;;;;;;;;;;4982874;28;20109;-76
2023/04/20 13:26:46;;;;;;;3.50;2.28;;;;;;;;;;4983286;28;20034;-80
2023/04/20 13:29:12;;;;;;;3.80;2.25;;;;;;;;;;4980891;28;20019;-81
2023/04/20 13:31:39;;;;;;;3.55;2.13;;;;;;;;;;4982798;28;20015;-82
2023/04/20 13:34:05;;;;;;;3.03;2.20;;;;;;;;;;4979345;28;20026;-78
2023/04/20 13:36:34;;;;;;;3.30;2.05;;;;;;;;;;4986227;28;20078;-81
2023/04/20 13:39:01;;;;;;;3.67;2.63;;;;;;;;;;4980219;28;20038;-79
2023/04/20 13:41:27;;;;;;;3.95;2.25;;;;;;;;;;4985703;28;20045;-86
2023/04/20 13:43:54;;;;;;;4.18;2.45;;;;;;;;;;4984716;28;20033;-84
2023/04/20 13:46:20;;;;;;;3.05;2.22;;;;;;;;;;4980898;28;20574;-84
2023/04/20 13:48:46;;;;;;;3.47;2.83;;;;;;;;;;4979355;28;20586;-79
2023/04/20 13:51:15;;;;;;;4.55;2.75;;;;;;;;;;4970542;28;20033;-82
2023/04/20 13:53:41;;;;;;;3.53;2.60;;;;;;;;;;4986887;28;20086;-80
2023/04/20 13:56:07;;;;;;;5.28;2.80;;;;;;;;;;4967822;28;20026;-80
2023/04/20 13:58:34;;;;;;;6.75;2.85;;;;;;;;;;4978330;28;20065;-80
2023/04/20 14:01:00;;;;;;;3.90;3.50;;;;;;;;;;4983639;28;20026;-80
2023/04/20 14:03:28;;;;;;;7.03;4.50;;;;;;;;;;4980390;28;20074;-83
2023/04/20 14:05:54;;;;;;;4.50;3.10;;;;;;;;;;4983042;28;20036;-82
2023/04/20 14:08:22;;;;;;;4.30;2.80;;;;;;;;;;4983533;28;20074;-82
2023/04/20 14:10:48;;;;;;;3.53;2.30;;;;;;;;;;4988295;28;20521;-84
2023/04/20 14:13:14;;;;;;;4.85;3.05;;;;;;;;;;4983456;28;20096;-80
2023/04/20 14:15:40;;;;;;;5.88;3.50;;;;;;;;;;4984251;28;20121;-80
2023/04/20 14:18:07;;;;;;;4.63;3.80;;;;;;;;;;4985438;28;20168;-80
2023/04/20 14:20:33;;;;;;;4.60;3.53;;;;;;;;;;4983793;28;20622;-82
2023/04/20 14:22:59;;;;;;;6.15;3.63;;;;;;;;;;4980686;28;20871;-79
2023/04/20 14:25:25;;;;;;;5.10;3.17;;;;;;;;;;4983709;28;20022;-79
2023/04/20 14:27:52;;;;;;;5.20;3.95;;;;;;;;;;4983235;28;20038;-79
2023/04/20 14:30:18;;;;;;;4.40;3.40;;;;;;;;;;4984924;28;20037;-80
2023/04/20 14:33:13;;;;;;;7.20;4.15;;;;;;;;;;4979911;28;20109;-80
2023/04/20 14:35:39;;;;;;;4.20;3.33;;;;;;;;;;4967638;28;20038;-83
2023/04/20 14:38:05;;;;;;;5.40;2.80;;;;;;;;;;4977025;28;20064;-85
2023/04/20 14:40:32;;;;;;;4.82;3.35;;;;;;;;;;4984510;28;20023;-82